createdAt,value
2022-08-04T00:01:10.216Z,6.10
2022-08-04T00:03:44.840Z,6.45
2022-08-04T00:06:18.155Z,8.10
2022-08-04T00:08:49.851Z,8.15
2022-08-04T00:11:22.660Z,7.60
2022-08-04T00:14:02.537Z,6.15
2022-08-04T00:16:37.551Z,9.07
2022-08-04T00:19:11.276Z,5.68
2022-08-04T00:21:43.421Z,3.42
2022-08-04T00:24:13.915Z,6.15
2022-08-04T00:26:42.568Z,6.75
2022-08-04T00:29:11.924Z,6.28
2022-08-04T00:31:55.090Z,7.93
2022-08-04T00:34:27.082Z,8.90
2022-08-04T00:36:55.703Z,6.72
2022-08-04T00:39:23.852Z,7.13
2022-08-04T00:42:12.049Z,8.32
2022-08-04T00:44:52.924Z,6.78
2022-08-04T00:47:40.392Z,8.05
2022-08-04T00:50:11.027Z,5.97
2022-08-04T00:52:53.665Z,11.00
2022-08-04T00:55:42.352Z,7.20
2022-08-04T00:58:30.337Z,6.43
2022-08-04T01:01:03.719Z,7.03
2022-08-04T01:03:47.011Z,4.80
2022-08-04T01:06:25.786Z,8.80
2022-08-04T01:09:07.049Z,7.88
2022-08-04T01:11:58.303Z,8.27
2022-08-04T01:14:51.160Z,8.48
2022-08-04T01:17:26.569Z,5.15
2022-08-04T01:20:02.344Z,9.18
2022-08-04T01:22:59.422Z,6.45
2022-08-04T01:25:56.266Z,8.57
2022-08-04T01:28:43.051Z,5.80
2022-08-04T01:31:21.683Z,9.10
2022-08-04T01:34:02.994Z,8.80
2022-08-04T01:36:36.023Z,9.32
2022-08-04T01:39:25.870Z,7.78
2022-08-04T01:41:57.928Z,8.18
2022-08-04T01:44:29.597Z,10.40
2022-08-04T01:47:01.445Z,11.63
2022-08-04T01:49:40.129Z,11.40
2022-08-04T01:52:11.622Z,12.45
2022-08-04T01:54:43.204Z,11.13
2022-08-04T01:57:38.527Z,11.05
2022-08-04T02:00:01.025Z,8.13
2022-08-04T02:02:30.352Z,9.20
2022-08-04T02:04:58.210Z,10.57
2022-08-04T02:07:41.498Z,8.80
2022-08-04T02:10:16.112Z,10.50
2022-08-04T02:12:57.091Z,10.10
2022-08-04T02:15:29.960Z,11.80
2022-08-04T02:18:04.474Z,5.68
2022-08-04T02:20:35.949Z,7.68
2022-08-04T02:23:06.392Z,9.23
2022-08-04T02:25:38.924Z,6.25
2022-08-04T02:28:16.343Z,7.68
2022-08-04T02:30:51.615Z,7.95
2022-08-04T02:33:25.362Z,6.03
2022-08-04T02:35:58.242Z,8.13
2022-08-04T02:38:43.826Z,14.43
2022-08-04T02:41:12.373Z,10.50
2022-08-04T02:43:51.386Z,11.32
2022-08-04T02:46:22.063Z,10.95
2022-08-04T02:48:53.611Z,9.80
2022-08-04T02:51:25.481Z,6.97
2022-08-04T02:53:56.045Z,8.55
2022-08-04T02:56:24.974Z,11.27
2022-08-04T02:58:57.506Z,8.52
2022-08-04T03:01:25.351Z,10.15
2022-08-04T03:04:13.608Z,9.80
2022-08-04T03:07:20.537Z,7.63
2022-08-04T03:10:05.897Z,12.23
2022-08-04T03:12:59.015Z,11.10
2022-08-04T03:15:56.368Z,9.65
2022-08-04T03:18:59.054Z,8.98
2022-08-04T03:24:43.805Z,11.27
2022-08-04T03:27:19.502Z,10.73
2022-08-04T03:30:06.563Z,13.32
2022-08-04T03:33:15.380Z,10.48
2022-08-04T03:36:31.701Z,7.95
2022-08-04T03:39:35.485Z,8.70
2022-08-04T03:42:35.204Z,11.32
2022-08-04T03:45:37.564Z,9.18
2022-08-04T03:48:14.634Z,7.03
2022-08-04T03:51:35.975Z,7.53
2022-08-04T03:54:31.631Z,8.02
2022-08-04T03:57:31.584Z,7.35
2022-08-04T04:00:09.962Z,7.32
2022-08-04T04:03:10.777Z,6.03
2022-08-04T04:06:04.592Z,9.98
2022-08-04T04:09:20.739Z,9.38
2022-08-04T04:12:28.633Z,7.95
2022-08-04T04:15:11.724Z,8.35
2022-08-04T04:17:58.948Z,9.43
2022-08-04T04:20:52.234Z,9.68
2022-08-04T04:23:31.948Z,6.82
2022-08-04T04:26:30.723Z,11.07
2022-08-04T04:29:07.568Z,12.45
2022-08-04T04:31:47.444Z,7.90
2022-08-04T04:34:27.520Z,9.10
2022-08-04T04:37:13.903Z,8.38
2022-08-04T04:39:53.157Z,10.48
2022-08-04T04:42:45.386Z,12.50
2022-08-04T04:45:32.913Z,13.15
2022-08-04T04:48:11.157Z,14.52
2022-08-04T04:51:07.159Z,8.85
2022-08-04T04:53:44.322Z,8.68
2022-08-04T04:56:18.356Z,12.82
2022-08-04T04:58:46.119Z,9.95
2022-08-04T05:01:35.612Z,15.50
2022-08-04T05:04:27.334Z,11.18
2022-08-04T05:07:18.472Z,14.88
2022-08-04T05:10:01.788Z,13.95
2022-08-04T05:14:35.435Z,8.68
2022-08-04T05:15:49.052Z,30.05
2022-08-04T05:18:22.391Z,18.85
2022-08-04T05:20:56.590Z,18.23
2022-08-04T05:23:27.705Z,14.90
2022-08-04T05:25:59.689Z,17.67
2022-08-04T05:28:30.828Z,13.70
2022-08-04T05:31:02.390Z,19.25
2022-08-04T05:33:35.686Z,16.83
2022-08-04T05:36:19.138Z,13.10
2022-08-04T05:38:54.842Z,16.48
2022-08-04T05:41:23.951Z,12.25
2022-08-04T05:44:02.034Z,13.23
2022-08-04T05:46:31.951Z,13.50
2022-08-04T05:48:59.732Z,22.60
2022-08-04T05:51:30.929Z,16.77
2022-08-04T05:53:59.749Z,18.07
2022-08-04T05:56:27.973Z,14.10
2022-08-04T05:58:57.547Z,12.15
2022-08-04T06:01:26.727Z,10.43
2022-08-04T06:03:56.913Z,13.13
2022-08-04T06:06:24.817Z,10.20
2022-08-04T06:08:57.699Z,11.93
2022-08-04T06:11:28.083Z,10.40
2022-08-04T06:13:59.536Z,10.52
2022-08-04T06:16:35.778Z,8.90
2022-08-04T06:20:03.087Z,18.75
2022-08-04T06:21:57.771Z,11.93
2022-08-04T06:24:30.007Z,11.45
2022-08-04T06:26:58.563Z,14.02
2022-08-04T06:29:34.199Z,11.32
2022-08-04T06:32:30.085Z,13.93
2022-08-04T06:35:03.332Z,10.88
2022-08-04T06:37:43.359Z,11.00
2022-08-04T06:40:29.970Z,10.60
2022-08-04T06:43:01.222Z,6.72
2022-08-04T06:45:30.468Z,9.80
2022-08-04T06:47:59.331Z,6.93
2022-08-04T06:51:27.048Z,6.68
2022-08-04T06:53:16.642Z,7.18
2022-08-04T06:55:48.667Z,5.88
2022-08-04T07:00:46.958Z,6.20
2022-08-04T07:03:15.630Z,6.60
2022-08-04T07:05:44.339Z,6.97
2022-08-04T07:08:12.894Z,6.68
2022-08-04T07:10:41.766Z,8.70
2022-08-04T07:13:12.362Z,8.48
2022-08-04T07:15:44.920Z,8.02
2022-08-04T07:18:12.876Z,7.97
2022-08-04T07:20:43.138Z,10.27
2022-08-04T07:23:12.904Z,7.82
2022-08-04T07:25:59.692Z,9.27
2022-08-04T07:28:31.615Z,6.22
2022-08-04T07:30:59.919Z,7.97
2022-08-04T07:33:28.640Z,6.95
2022-08-04T07:36:05.626Z,6.85
2022-08-04T07:41:39.092Z,5.68
2022-08-04T07:44:09.282Z,5.18
2022-08-04T07:46:37.448Z,7.30
2022-08-04T07:49:06.401Z,10.32
2022-08-04T07:51:35.549Z,13.18
2022-08-04T07:54:05.226Z,14.13
2022-08-04T07:56:34.414Z,13.63
2022-08-04T07:59:02.626Z,12.05
2022-08-04T08:01:32.287Z,10.90
2022-08-04T08:04:01.937Z,13.63
2022-08-04T08:06:34.727Z,11.35
2022-08-04T08:09:13.250Z,14.38
2022-08-04T08:12:36.715Z,13.75
2022-08-04T08:14:30.593Z,13.88
2022-08-04T08:17:02.533Z,13.15
2022-08-04T08:19:31.004Z,14.52
2022-08-04T08:22:00.824Z,12.32
2022-08-04T08:24:30.681Z,11.95
2022-08-04T08:27:00.106Z,15.63
2022-08-04T08:29:29.547Z,14.15
2022-08-04T08:32:02.760Z,8.88
2022-08-04T08:34:36.967Z,9.68
2022-08-04T08:37:13.449Z,10.63
2022-08-04T08:39:46.022Z,9.77
2022-08-04T08:42:41.489Z,7.90
2022-08-04T08:45:42.629Z,10.00
2022-08-04T08:48:31.472Z,6.72
2022-08-04T08:51:37.849Z,5.13
2022-08-04T08:54:29.880Z,6.60
2022-08-04T08:57:14.309Z,7.85
2022-08-04T08:59:55.339Z,8.32
2022-08-04T09:03:04.608Z,5.78
2022-08-04T09:05:51.747Z,7.03
2022-08-04T09:08:48.541Z,8.93
2022-08-04T09:11:22.029Z,8.55
2022-08-04T09:13:56.423Z,5.35
2022-08-04T09:16:35.463Z,7.55
2022-08-04T09:19:09.662Z,6.28
2022-08-04T09:21:52.121Z,5.25
2022-08-04T09:24:35.504Z,6.97
2022-08-04T09:27:15.461Z,7.55
2022-08-04T09:29:49.057Z,11.13
2022-08-04T09:32:27.357Z,6.70
2022-08-04T09:35:08.404Z,6.43
2022-08-04T09:37:46.114Z,9.52
2022-08-04T09:40:31.192Z,4.32
2022-08-04T09:43:57.220Z,5.63
2022-08-04T09:46:26.539Z,6.55
2022-08-04T09:48:59.901Z,5.63
2022-08-04T09:51:57.933Z,5.47
2022-08-04T09:54:33.215Z,6.15
2022-08-04T09:57:10.618Z,6.35
2022-08-04T09:59:47.889Z,6.38
2022-08-04T10:02:20.223Z,4.55
2022-08-04T10:04:50.366Z,4.90
2022-08-04T10:07:43.802Z,4.80
2022-08-04T10:10:37.191Z,5.20
2022-08-04T10:13:15.457Z,5.97
2022-08-04T10:16:12.579Z,5.03
2022-08-04T10:18:50.835Z,3.85
2022-08-04T10:21:27.837Z,6.07
2022-08-04T10:24:13.579Z,6.60
2022-08-04T10:26:53.114Z,6.97
2022-08-04T10:32:04.331Z,8.00
2022-08-04T10:34:40.764Z,4.30
2022-08-04T10:37:20.262Z,5.20
2022-08-04T10:40:09.110Z,5.13
2022-08-04T10:42:43.001Z,6.65
2022-08-04T10:45:18.150Z,5.70
2022-08-04T10:48:01.514Z,8.02
2022-08-04T10:50:31.355Z,6.18
2022-08-04T10:53:21.550Z,6.74
2022-08-04T10:56:07.353Z,7.70
2022-08-04T10:58:47.396Z,5.28
2022-08-04T11:02:02.110Z,5.85
2022-08-04T11:04:30.680Z,6.40
2022-08-04T11:07:00.568Z,5.15
2022-08-04T11:09:29.989Z,7.50
2022-08-04T11:12:07.760Z,6.22
2022-08-04T11:14:40.983Z,7.45
2022-08-04T11:17:12.848Z,9.02
2022-08-04T11:19:53.184Z,8.70
2022-08-04T11:22:27.234Z,5.10
2022-08-04T11:25:02.378Z,6.65
2022-08-04T11:27:37.091Z,7.05
2022-08-04T11:30:08.796Z,8.88
2022-08-04T11:32:43.787Z,5.65
2022-08-04T11:35:18.462Z,9.45
2022-08-04T11:37:50.210Z,7.45
2022-08-04T11:42:56.338Z,5.82
2022-08-04T11:45:32.404Z,6.07
2022-08-04T11:48:05.007Z,8.23
2022-08-04T11:50:41.441Z,9.63
2022-08-04T11:53:13.046Z,13.57
2022-08-04T11:56:07.548Z,10.52
2022-08-04T11:58:30.574Z,5.55
2022-08-04T12:01:07.335Z,6.60
2022-08-04T12:03:40.736Z,9.15
2022-08-04T12:06:18.769Z,11.80
2022-08-04T12:09:10.387Z,9.25
2022-08-04T12:11:55.787Z,9.00
2022-08-04T12:14:32.577Z,9.90
2022-08-04T12:17:02.244Z,8.90
2022-08-04T12:19:57.923Z,8.15
2022-08-04T12:22:31.448Z,9.13
2022-08-04T12:25:04.340Z,7.28
2022-08-04T12:27:36.215Z,8.73
2022-08-04T12:30:58.445Z,6.95
2022-08-04T12:33:00.527Z,9.18
2022-08-04T12:35:34.848Z,10.60
2022-08-04T12:38:07.218Z,9.77
2022-08-04T12:40:40.373Z,10.15
2022-08-04T12:43:12.697Z,9.07
2022-08-04T12:45:48.704Z,7.57
2022-08-04T12:48:21.309Z,9.55
2022-08-04T12:50:51.374Z,8.93
2022-08-04T12:53:31.839Z,6.28
2022-08-04T12:56:02.388Z,4.93
2022-08-04T12:58:42.960Z,5.97
2022-08-04T13:02:09.427Z,7.53
2022-08-04T13:04:06.330Z,9.33
2022-08-04T13:06:36.884Z,6.50
2022-08-04T13:09:10.080Z,6.43
2022-08-04T13:11:52.192Z,7.43
2022-08-04T13:14:27.490Z,4.05
2022-08-04T13:16:59.488Z,7.00
2022-08-04T13:19:28.848Z,7.43
2022-08-04T13:22:03.361Z,6.15
2022-08-04T13:24:56.870Z,8.40
2022-08-04T13:27:26.740Z,5.57
2022-08-04T13:30:08.914Z,5.55
2022-08-04T13:32:37.506Z,7.88
2022-08-04T13:35:09.920Z,4.43
2022-08-04T13:37:40.467Z,7.65
2022-08-04T13:40:13.518Z,8.85
2022-08-04T13:42:47.753Z,6.43
2022-08-04T13:45:19.998Z,5.00
2022-08-04T13:47:51.585Z,5.65
2022-08-04T13:50:23.480Z,4.43
2022-08-04T13:52:54.889Z,5.63
2022-08-04T13:55:31.089Z,6.75
2022-08-04T13:58:03.807Z,6.20
2022-08-04T14:00:45.218Z,5.13
2022-08-04T14:03:24.724Z,7.32
2022-08-04T14:06:16.714Z,4.95
2022-08-04T14:08:53.825Z,4.35
2022-08-04T14:12:10.461Z,4.72
2022-08-04T14:14:29.383Z,6.10
2022-08-04T14:17:04.135Z,5.53
2022-08-04T14:19:49.995Z,5.00
2022-08-04T14:22:33.607Z,4.45
2022-08-04T14:25:04.162Z,4.85
2022-08-04T14:27:43.248Z,4.63
2022-08-04T14:30:23.494Z,6.68
2022-08-04T14:32:57.731Z,4.57
2022-08-04T14:35:26.443Z,4.38
2022-08-04T14:38:08.479Z,3.53
2022-08-04T14:40:39.141Z,4.60
2022-08-04T14:43:09.687Z,7.88
2022-08-04T14:45:39.617Z,5.03
2022-08-04T14:48:23.328Z,6.25
2022-08-04T14:50:52.530Z,5.55
2022-08-04T14:53:22.421Z,6.40
2022-08-04T14:55:51.897Z,4.00
2022-08-04T14:58:35.854Z,5.20
2022-08-04T15:01:12.495Z,6.53
2022-08-04T15:03:49.830Z,4.03
2022-08-04T15:06:23.275Z,5.10
2022-08-04T15:08:52.856Z,4.53
2022-08-04T15:11:23.439Z,6.63
2022-08-04T15:13:53.362Z,4.50
2022-08-04T15:16:21.667Z,6.07
2022-08-04T15:18:49.921Z,5.10
2022-08-04T15:21:18.638Z,4.53
2022-08-04T15:23:46.427Z,5.05
2022-08-04T15:26:17.156Z,5.93
2022-08-04T15:28:51.320Z,6.95
2022-08-04T15:32:07.724Z,7.80
2022-08-04T15:34:11.782Z,7.90
2022-08-04T15:36:45.846Z,6.35
2022-08-04T15:39:35.870Z,7.68
2022-08-04T15:42:20.443Z,4.80
2022-08-04T15:45:17.646Z,6.80
2022-08-04T15:48:15.869Z,7.38
2022-08-04T15:51:03.761Z,7.72
2022-08-04T15:54:02.322Z,8.18
2022-08-04T15:56:48.398Z,6.18
2022-08-04T16:00:11.211Z,6.32
2022-08-04T16:02:46.973Z,7.80
2022-08-04T16:05:39.527Z,9.02
2022-08-04T16:08:20.458Z,9.85
2022-08-04T16:10:51.760Z,7.82
2022-08-04T16:13:21.381Z,8.95
2022-08-04T16:15:51.977Z,13.95
2022-08-04T16:18:39.770Z,24.50
2022-08-04T16:21:21.964Z,8.30
2022-08-04T16:24:07.672Z,9.02
2022-08-04T16:26:53.738Z,8.98
2022-08-04T16:29:32.248Z,7.80
2022-08-04T16:32:11.848Z,9.70
2022-08-04T16:34:49.661Z,9.95
2022-08-04T16:37:25.948Z,6.93
2022-08-04T16:40:33.341Z,6.50
2022-08-04T16:43:07.973Z,6.75
2022-08-04T16:45:48.048Z,7.63
2022-08-04T16:48:17.162Z,10.55
2022-08-04T16:50:50.684Z,8.20
2022-08-04T16:53:51.613Z,9.00
2022-08-04T16:56:11.224Z,8.27
2022-08-04T16:58:54.016Z,9.68
2022-08-04T17:01:33.257Z,8.88
2022-08-04T17:04:06.044Z,8.65
2022-08-04T17:06:36.287Z,7.57
2022-08-04T17:09:08.324Z,7.43
2022-08-04T17:11:36.353Z,7.63
2022-08-04T17:14:06.087Z,7.88
2022-08-04T17:16:36.148Z,7.22
2022-08-04T17:19:06.194Z,7.00
2022-08-04T17:21:36.266Z,10.10
2022-08-04T17:24:14.514Z,8.30
2022-08-04T17:26:53.974Z,9.57
2022-08-04T17:29:43.015Z,6.32
2022-08-04T17:32:15.960Z,9.02
2022-08-04T17:34:48.584Z,9.02
2022-08-04T17:40:11.419Z,7.10
2022-08-04T17:42:41.458Z,7.80
2022-08-04T17:45:39.864Z,7.78
2022-08-04T17:47:58.992Z,5.53
2022-08-04T17:50:27.501Z,8.15
2022-08-04T17:53:12.316Z,8.07
2022-08-04T17:58:32.582Z,5.93
2022-08-04T18:03:53.458Z,7.45
2022-08-04T18:06:25.710Z,5.93
2022-08-04T18:08:58.111Z,5.88
2022-08-04T18:11:41.510Z,7.25
2022-08-04T18:14:10.723Z,5.78
2022-08-04T18:16:44.608Z,6.88
2022-08-04T18:19:14.044Z,5.45
2022-08-04T18:21:46.080Z,6.60
2022-08-04T18:24:34.214Z,7.93
2022-08-04T18:27:19.018Z,8.25
2022-08-04T18:30:14.556Z,8.48
2022-08-04T18:32:35.611Z,6.95
2022-08-04T18:35:07.247Z,8.95
2022-08-04T18:38:05.769Z,8.80
2022-08-04T18:40:30.018Z,5.93
2022-08-04T18:43:04.595Z,5.28
2022-08-04T18:45:34.535Z,8.15
2022-08-04T18:48:04.030Z,6.00
2022-08-04T18:51:09.715Z,5.68
2022-08-04T18:53:35.685Z,4.20
2022-08-04T18:56:06.070Z,8.00
2022-08-04T18:58:35.624Z,7.57
2022-08-04T19:01:13.597Z,5.03
2022-08-04T19:03:44.119Z,7.57
2022-08-04T19:06:12.584Z,5.30
2022-08-04T19:08:42.445Z,6.00
2022-08-04T19:11:19.450Z,6.45
2022-08-04T19:14:00.131Z,7.03
2022-08-04T19:16:31.358Z,6.43
2022-08-04T19:19:00.312Z,9.75
2022-08-04T19:21:59.618Z,7.03
2022-08-04T19:24:31.752Z,7.53
2022-08-04T19:27:06.998Z,10.88
2022-08-04T19:29:41.227Z,6.60
2022-08-04T19:32:14.734Z,4.78
2022-08-04T19:34:46.002Z,8.98
2022-08-04T19:37:57.921Z,7.35
2022-08-04T19:40:06.207Z,6.63
2022-08-04T19:42:34.823Z,6.60
2022-08-04T19:45:05.124Z,8.13
2022-08-04T19:48:17.796Z,5.65
2022-08-04T19:50:23.654Z,12.02
2022-08-04T19:52:52.557Z,5.85
2022-08-04T19:55:22.213Z,7.28
2022-08-04T19:57:50.824Z,6.53
2022-08-04T20:00:33.136Z,5.80
2022-08-04T20:03:02.629Z,10.27
2022-08-04T20:05:52.576Z,4.72
2022-08-04T20:08:18.852Z,7.22
2022-08-04T20:10:51.544Z,6.53
2022-08-04T20:13:20.265Z,7.03
2022-08-04T20:15:57.530Z,7.15
2022-08-04T20:18:55.493Z,5.35
2022-08-04T20:21:36.654Z,4.30
2022-08-04T20:24:39.236Z,3.30
2022-08-04T20:27:07.801Z,4.32
2022-08-04T20:29:40.245Z,5.22
2022-08-04T20:32:10.462Z,5.95
2022-08-04T20:34:40.154Z,5.28
2022-08-04T20:37:10.104Z,4.18
2022-08-04T20:39:39.129Z,3.63
2022-08-04T20:42:07.515Z,6.80
2022-08-04T20:44:42.195Z,5.93
2022-08-04T20:47:15.443Z,3.50
2022-08-04T20:49:43.346Z,5.53
2022-08-04T20:52:18.127Z,4.55
2022-08-04T20:54:49.219Z,3.80
2022-08-04T20:57:48.131Z,5.68
2022-08-04T21:00:13.257Z,4.18
2022-08-04T21:02:42.723Z,5.38
2022-08-04T21:05:12.691Z,3.10
2022-08-04T21:07:43.764Z,5.70
2022-08-04T21:10:11.983Z,4.05
2022-08-04T21:12:39.917Z,4.95
2022-08-04T21:15:13.511Z,4.15
2022-08-04T21:20:32.453Z,4.25
2022-08-04T21:23:03.498Z,3.92
2022-08-04T21:25:32.266Z,3.72
2022-08-04T21:28:10.948Z,5.70
2022-08-04T21:30:52.833Z,4.47
2022-08-04T21:33:44.717Z,5.20
2022-08-04T21:36:13.869Z,5.35
2022-08-04T21:38:41.992Z,3.30
2022-08-04T21:41:24.167Z,4.22
2022-08-04T21:43:53.436Z,3.75
2022-08-04T21:46:22.023Z,3.42
2022-08-04T21:48:51.391Z,4.53
2022-08-04T21:51:57.478Z,6.72
2022-08-04T21:56:58.145Z,2.70
2022-08-04T21:59:30.527Z,4.47
2022-08-04T22:02:00.611Z,4.22
2022-08-04T22:04:31.094Z,3.58
2022-08-04T22:07:03.000Z,3.88
2022-08-04T22:09:38.574Z,5.45
2022-08-04T22:12:10.388Z,3.95
2022-08-04T22:14:40.075Z,6.38
2022-08-04T22:17:13.572Z,7.35
2022-08-04T22:19:56.336Z,6.93
2022-08-04T22:22:27.027Z,6.82
2022-08-04T22:25:01.372Z,9.55
2022-08-04T22:27:47.617Z,7.32
2022-08-04T22:30:17.775Z,8.20
2022-08-04T22:32:47.076Z,7.03
2022-08-04T22:35:36.545Z,10.15
2022-08-04T22:38:23.954Z,9.00
2022-08-04T22:40:58.174Z,8.20
2022-08-04T22:43:32.034Z,6.45
2022-08-04T22:46:03.657Z,9.27
2022-08-04T22:48:32.470Z,7.93
2022-08-04T22:51:02.649Z,8.73
2022-08-04T22:53:30.742Z,6.20
2022-08-04T22:56:09.184Z,7.65
2022-08-04T22:58:45.172Z,7.35
2022-08-04T23:01:18.586Z,6.68
2022-08-04T23:03:51.199Z,6.60
2022-08-04T23:06:28.670Z,4.95
2022-08-04T23:08:56.808Z,5.40
2022-08-04T23:11:24.962Z,5.47
2022-08-04T23:14:02.891Z,4.82
2022-08-04T23:16:31.236Z,4.14
2022-08-04T23:21:40.633Z,4.43
2022-08-04T23:24:09.520Z,6.28
2022-08-04T23:26:37.345Z,7.78
2022-08-04T23:29:05.199Z,6.93
2022-08-04T23:31:41.296Z,7.00
2022-08-04T23:34:20.763Z,5.60
2022-08-04T23:36:51.316Z,5.65
2022-08-04T23:39:19.127Z,6.05
2022-08-04T23:41:51.404Z,8.20
2022-08-04T23:44:25.193Z,7.88
2022-08-04T23:47:02.558Z,4.38
2022-08-04T23:49:44.515Z,7.10
2022-08-04T23:52:28.319Z,9.73
2022-08-04T23:54:59.033Z,9.60
2022-08-04T23:57:31.266Z,5.80
